sensor_id;sensor_type;location;lat;lon;timestamp;temperature;humidity
21331;DHT22;10824;51.632;4.950;2023-08-31T00:00:46;12.90;99.90
21331;DHT22;10824;51.632;4.950;2023-08-31T00:03:13;12.80;99.90
21331;DHT22;10824;51.632;4.950;2023-08-31T00:05:43;12.80;99.90
21331;DHT22;10824;51.632;4.950;2023-08-31T00:08:10;12.80;99.90
21331;DHT22;10824;51.632;4.950;2023-08-31T00:10:39;12.70;99.90
21331;DHT22;10824;51.632;4.950;2023-08-31T00:13:07;12.70;99.90
21331;DHT22;10824;51.632;4.950;2023-08-31T00:15:35;12.70;99.90
21331;DHT22;10824;51.632;4.950;2023-08-31T00:18:04;12.70;99.90
21331;DHT22;10824;51.632;4.950;2023-08-31T00:20:31;12.60;99.90
21331;DHT22;10824;51.632;4.950;2023-08-31T00:23:00;12.70;1.00
21331;DHT22;10824;51.632;4.950;2023-08-31T00:25:27;12.60;1.00
21331;DHT22;10824;51.632;4.950;2023-08-31T00:27:56;12.60;1.00
21331;DHT22;10824;51.632;4.950;2023-08-31T00:30:24;12.60;1.00
21331;DHT22;10824;51.632;4.950;2023-08-31T00:32:56;12.50;1.00
21331;DHT22;10824;51.632;4.950;2023-08-31T00:35:27;12.50;1.00
21331;DHT22;10824;51.632;4.950;2023-08-31T00:37:56;12.50;1.00
21331;DHT22;10824;51.632;4.950;2023-08-31T00:40:28;12.50;1.00
21331;DHT22;10824;51.632;4.950;2023-08-31T00:42:58;12.50;1.00
21331;DHT22;10824;51.632;4.950;2023-08-31T00:45:25;12.50;1.00
21331;DHT22;10824;51.632;4.950;2023-08-31T00:47:52;12.50;1.00
21331;DHT22;10824;51.632;4.950;2023-08-31T00:50:19;12.40;1.00
21331;DHT22;10824;51.632;4.950;2023-08-31T00:52:46;12.40;1.00
21331;DHT22;10824;51.632;4.950;2023-08-31T00:55:14;12.40;14.30
21331;DHT22;10824;51.632;4.950;2023-08-31T00:57:46;12.40;1.00
21331;DHT22;10824;51.632;4.950;2023-08-31T01:00:14;12.40;1.00
21331;DHT22;10824;51.632;4.950;2023-08-31T01:03:00;12.40;1.00
21331;DHT22;10824;51.632;4.950;2023-08-31T01:05:39;12.40;1.00
21331;DHT22;10824;51.632;4.950;2023-08-31T01:11:19;12.40;1.00
21331;DHT22;10824;51.632;4.950;2023-08-31T01:13:53;12.40;1.00
21331;DHT22;10824;51.632;4.950;2023-08-31T01:16:24;12.40;1.00
21331;DHT22;10824;51.632;4.950;2023-08-31T01:18:54;12.40;1.00
21331;DHT22;10824;51.632;4.950;2023-08-31T01:21:27;12.50;1.00
21331;DHT22;10824;51.632;4.950;2023-08-31T01:23:56;12.50;1.00
21331;DHT22;10824;51.632;4.950;2023-08-31T01:26:25;12.50;1.00
21331;DHT22;10824;51.632;4.950;2023-08-31T01:28:52;12.50;1.00
21331;DHT22;10824;51.632;4.950;2023-08-31T01:31:21;12.50;1.00
21331;DHT22;10824;51.632;4.950;2023-08-31T01:33:48;12.50;1.00
21331;DHT22;10824;51.632;4.950;2023-08-31T01:36:28;12.60;6.90
21331;DHT22;10824;51.632;4.950;2023-08-31T01:39:17;12.70;61.60
21331;DHT22;10824;51.632;4.950;2023-08-31T01:41:53;12.60;1.00
21331;DHT22;10824;51.632;4.950;2023-08-31T01:44:22;12.70;99.90
21331;DHT22;10824;51.632;4.950;2023-08-31T01:46:52;12.70;99.90
21331;DHT22;10824;51.632;4.950;2023-08-31T01:49:24;12.70;99.90
21331;DHT22;10824;51.632;4.950;2023-08-31T01:51:51;12.70;99.90
21331;DHT22;10824;51.632;4.950;2023-08-31T01:54:18;12.70;99.90
21331;DHT22;10824;51.632;4.950;2023-08-31T01:56:45;12.80;99.90
21331;DHT22;10824;51.632;4.950;2023-08-31T01:59:12;12.80;99.90
21331;DHT22;10824;51.632;4.950;2023-08-31T02:01:39;12.80;99.90
21331;DHT22;10824;51.632;4.950;2023-08-31T02:04:08;12.80;99.90
21331;DHT22;10824;51.632;4.950;2023-08-31T02:06:35;12.80;99.90
21331;DHT22;10824;51.632;4.950;2023-08-31T02:09:02;12.80;99.90
21331;DHT22;10824;51.632;4.950;2023-08-31T02:11:29;12.70;99.90
21331;DHT22;10824;51.632;4.950;2023-08-31T02:13:58;12.60;99.90
21331;DHT22;10824;51.632;4.950;2023-08-31T02:16:25;12.50;99.90
21331;DHT22;10824;51.632;4.950;2023-08-31T02:18:54;12.50;99.90
21331;DHT22;10824;51.632;4.950;2023-08-31T02:21:22;12.40;99.90
21331;DHT22;10824;51.632;4.950;2023-08-31T02:23:52;12.40;99.90
21331;DHT22;10824;51.632;4.950;2023-08-31T02:26:20;12.40;99.90
21331;DHT22;10824;51.632;4.950;2023-08-31T02:28:47;12.40;99.90
21331;DHT22;10824;51.632;4.950;2023-08-31T02:31:17;12.40;99.90
21331;DHT22;10824;51.632;4.950;2023-08-31T02:33:46;12.30;99.90
21331;DHT22;10824;51.632;4.950;2023-08-31T02:36:13;12.30;1.00
21331;DHT22;10824;51.632;4.950;2023-08-31T02:38:42;12.30;1.00
21331;DHT22;10824;51.632;4.950;2023-08-31T02:41:09;12.30;99.90
21331;DHT22;10824;51.632;4.950;2023-08-31T02:43:36;12.30;1.00
21331;DHT22;10824;51.632;4.950;2023-08-31T02:46:03;12.20;99.90
21331;DHT22;10824;51.632;4.950;2023-08-31T02:48:32;12.20;99.90
21331;DHT22;10824;51.632;4.950;2023-08-31T02:51:00;12.20;1.00
21331;DHT22;10824;51.632;4.950;2023-08-31T02:53:32;12.10;1.00
21331;DHT22;10824;51.632;4.950;2023-08-31T02:55:59;12.10;1.00
21331;DHT22;10824;51.632;4.950;2023-08-31T02:58:29;12.00;1.00
21331;DHT22;10824;51.632;4.950;2023-08-31T03:01:12;12.00;1.00
21331;DHT22;10824;51.632;4.950;2023-08-31T03:03:43;12.00;1.00
21331;DHT22;10824;51.632;4.950;2023-08-31T03:06:12;11.90;1.00
21331;DHT22;10824;51.632;4.950;2023-08-31T03:08:39;11.90;1.00
21331;DHT22;10824;51.632;4.950;2023-08-31T03:11:07;11.90;1.00
21331;DHT22;10824;51.632;4.950;2023-08-31T03:13:35;11.90;1.00
21331;DHT22;10824;51.632;4.950;2023-08-31T03:16:02;11.80;1.00
21331;DHT22;10824;51.632;4.950;2023-08-31T03:18:30;11.80;1.00
21331;DHT22;10824;51.632;4.950;2023-08-31T03:20:57;11.70;1.00
21331;DHT22;10824;51.632;4.950;2023-08-31T03:23:25;11.80;1.00
21331;DHT22;10824;51.632;4.950;2023-08-31T03:25:52;11.70;1.00
21331;DHT22;10824;51.632;4.950;2023-08-31T03:28:20;11.70;1.00
21331;DHT22;10824;51.632;4.950;2023-08-31T03:30:57;11.70;1.00
21331;DHT22;10824;51.632;4.950;2023-08-31T03:33:24;11.70;1.00
21331;DHT22;10824;51.632;4.950;2023-08-31T03:35:54;11.70;1.00
21331;DHT22;10824;51.632;4.950;2023-08-31T03:38:21;11.70;1.00
21331;DHT22;10824;51.632;4.950;2023-08-31T03:40:55;11.70;1.00
21331;DHT22;10824;51.632;4.950;2023-08-31T03:43:22;11.80;1.00
21331;DHT22;10824;51.632;4.950;2023-08-31T03:45:55;11.70;1.00
21331;DHT22;10824;51.632;4.950;2023-08-31T03:48:25;11.70;1.00
21331;DHT22;10824;51.632;4.950;2023-08-31T03:50:53;11.70;1.00
21331;DHT22;10824;51.632;4.950;2023-08-31T03:53:22;11.70;1.00
21331;DHT22;10824;51.632;4.950;2023-08-31T03:55:53;11.70;1.00
21331;DHT22;10824;51.632;4.950;2023-08-31T03:58:20;11.70;1.00
21331;DHT22;10824;51.632;4.950;2023-08-31T04:00:50;11.60;1.00
21331;DHT22;10824;51.632;4.950;2023-08-31T04:03:18;11.60;1.00
21331;DHT22;10824;51.632;4.950;2023-08-31T04:05:47;11.60;1.00
21331;DHT22;10824;51.632;4.950;2023-08-31T04:08:14;11.60;1.00
21331;DHT22;10824;51.632;4.950;2023-08-31T04:10:41;11.60;1.00
21331;DHT22;10824;51.632;4.950;2023-08-31T04:13:09;11.70;1.00
21331;DHT22;10824;51.632;4.950;2023-08-31T04:15:36;11.70;1.00
21331;DHT22;10824;51.632;4.950;2023-08-31T04:18:04;11.70;1.00
21331;DHT22;10824;51.632;4.950;2023-08-31T04:20:33;11.70;1.00
21331;DHT22;10824;51.632;4.950;2023-08-31T04:23:00;11.60;1.00
21331;DHT22;10824;51.632;4.950;2023-08-31T04:25:29;11.60;1.00
21331;DHT22;10824;51.632;4.950;2023-08-31T04:27:58;11.70;1.00
21331;DHT22;10824;51.632;4.950;2023-08-31T04:30:25;11.60;1.00
21331;DHT22;10824;51.632;4.950;2023-08-31T04:32:53;11.60;1.00
21331;DHT22;10824;51.632;4.950;2023-08-31T04:35:20;11.60;1.00
21331;DHT22;10824;51.632;4.950;2023-08-31T04:37:47;11.60;1.00
21331;DHT22;10824;51.632;4.950;2023-08-31T04:40:15;11.60;1.00
21331;DHT22;10824;51.632;4.950;2023-08-31T04:42:42;11.60;1.00
21331;DHT22;10824;51.632;4.950;2023-08-31T04:45:09;11.60;1.00
21331;DHT22;10824;51.632;4.950;2023-08-31T04:47:38;11.60;1.00
21331;DHT22;10824;51.632;4.950;2023-08-31T04:50:06;11.50;1.00
21331;DHT22;10824;51.632;4.950;2023-08-31T04:52:33;11.60;1.00
21331;DHT22;10824;51.632;4.950;2023-08-31T04:55:01;11.60;1.00
21331;DHT22;10824;51.632;4.950;2023-08-31T04:57:30;11.60;1.00
21331;DHT22;10824;51.632;4.950;2023-08-31T04:59:57;11.60;1.00
21331;DHT22;10824;51.632;4.950;2023-08-31T05:02:25;11.60;1.00
21331;DHT22;10824;51.632;4.950;2023-08-31T05:04:52;11.60;1.00
21331;DHT22;10824;51.632;4.950;2023-08-31T05:07:19;11.60;1.00
21331;DHT22;10824;51.632;4.950;2023-08-31T05:09:46;11.60;1.00
21331;DHT22;10824;51.632;4.950;2023-08-31T05:12:13;11.60;1.00
21331;DHT22;10824;51.632;4.950;2023-08-31T05:14:40;11.70;1.00
21331;DHT22;10824;51.632;4.950;2023-08-31T05:17:07;11.60;1.00
21331;DHT22;10824;51.632;4.950;2023-08-31T05:19:34;11.60;1.00
21331;DHT22;10824;51.632;4.950;2023-08-31T05:22:02;11.60;1.00
21331;DHT22;10824;51.632;4.950;2023-08-31T05:24:29;11.60;1.00
21331;DHT22;10824;51.632;4.950;2023-08-31T05:26:56;11.60;1.00
21331;DHT22;10824;51.632;4.950;2023-08-31T05:29:23;11.70;1.00
21331;DHT22;10824;51.632;4.950;2023-08-31T05:31:52;11.70;1.00
21331;DHT22;10824;51.632;4.950;2023-08-31T05:34:21;11.70;1.00
21331;DHT22;10824;51.632;4.950;2023-08-31T05:36:49;11.80;1.00
21331;DHT22;10824;51.632;4.950;2023-08-31T05:39:16;11.80;1.00
21331;DHT22;10824;51.632;4.950;2023-08-31T05:41:43;11.80;1.00
21331;DHT22;10824;51.632;4.950;2023-08-31T05:44:11;11.80;1.00
21331;DHT22;10824;51.632;4.950;2023-08-31T05:46:38;11.80;1.00
21331;DHT22;10824;51.632;4.950;2023-08-31T05:49:06;11.90;1.00
21331;DHT22;10824;51.632;4.950;2023-08-31T05:51:34;12.10;1.00
21331;DHT22;10824;51.632;4.950;2023-08-31T05:54:01;12.10;99.90
21331;DHT22;10824;51.632;4.950;2023-08-31T05:56:31;12.00;99.90
21331;DHT22;10824;51.632;4.950;2023-08-31T05:58:58;12.00;99.90
21331;DHT22;10824;51.632;4.950;2023-08-31T06:01:25;12.10;99.90
21331;DHT22;10824;51.632;4.950;2023-08-31T06:03:52;12.40;99.90
21331;DHT22;10824;51.632;4.950;2023-08-31T06:06:19;12.60;99.90
21331;DHT22;10824;51.632;4.950;2023-08-31T06:08:47;12.60;1.00
21331;DHT22;10824;51.632;4.950;2023-08-31T06:11:15;12.70;99.90
21331;DHT22;10824;51.632;4.950;2023-08-31T06:13:42;12.80;1.40
21331;DHT22;10824;51.632;4.950;2023-08-31T06:16:09;12.70;1.00
21331;DHT22;10824;51.632;4.950;2023-08-31T06:18:37;12.70;1.00
21331;DHT22;10824;51.632;4.950;2023-08-31T06:21:04;12.60;1.00
21331;DHT22;10824;51.632;4.950;2023-08-31T06:23:31;12.70;45.90
21331;DHT22;10824;51.632;4.950;2023-08-31T06:25:58;12.70;99.90
21331;DHT22;10824;51.632;4.950;2023-08-31T06:28:25;12.80;99.90
21331;DHT22;10824;51.632;4.950;2023-08-31T06:30:52;12.80;99.90
21331;DHT22;10824;51.632;4.950;2023-08-31T06:33:19;12.90;99.90
21331;DHT22;10824;51.632;4.950;2023-08-31T06:35:47;12.90;99.90
21331;DHT22;10824;51.632;4.950;2023-08-31T06:38:19;12.90;99.90
21331;DHT22;10824;51.632;4.950;2023-08-31T06:40:47;13.00;99.90
21331;DHT22;10824;51.632;4.950;2023-08-31T06:43:14;13.10;99.90
21331;DHT22;10824;51.632;4.950;2023-08-31T06:45:41;13.10;99.90
21331;DHT22;10824;51.632;4.950;2023-08-31T06:48:09;13.20;99.90
21331;DHT22;10824;51.632;4.950;2023-08-31T06:50:36;13.30;99.90
21331;DHT22;10824;51.632;4.950;2023-08-31T06:53:03;13.30;99.90
21331;DHT22;10824;51.632;4.950;2023-08-31T06:55:31;13.40;99.90
21331;DHT22;10824;51.632;4.950;2023-08-31T06:58:00;13.50;99.90
21331;DHT22;10824;51.632;4.950;2023-08-31T07:00:27;13.60;99.90
21331;DHT22;10824;51.632;4.950;2023-08-31T07:02:57;13.70;99.90
21331;DHT22;10824;51.632;4.950;2023-08-31T07:05:26;13.80;99.90
21331;DHT22;10824;51.632;4.950;2023-08-31T07:07:55;13.90;1.00
21331;DHT22;10824;51.632;4.950;2023-08-31T07:10:23;14.10;1.00
21331;DHT22;10824;51.632;4.950;2023-08-31T07:12:50;14.20;1.00
21331;DHT22;10824;51.632;4.950;2023-08-31T07:15:17;14.20;1.00
21331;DHT22;10824;51.632;4.950;2023-08-31T07:17:44;14.30;1.00
21331;DHT22;10824;51.632;4.950;2023-08-31T07:20:12;14.40;1.00
21331;DHT22;10824;51.632;4.950;2023-08-31T07:22:39;14.50;1.00
21331;DHT22;10824;51.632;4.950;2023-08-31T07:25:07;14.50;1.00
21331;DHT22;10824;51.632;4.950;2023-08-31T07:27:35;14.60;99.90
21331;DHT22;10824;51.632;4.950;2023-08-31T07:30:02;14.70;99.90
21331;DHT22;10824;51.632;4.950;2023-08-31T07:32:30;14.80;99.90
21331;DHT22;10824;51.632;4.950;2023-08-31T07:34:58;14.80;99.90
21331;DHT22;10824;51.632;4.950;2023-08-31T07:37:25;14.90;1.00
21331;DHT22;10824;51.632;4.950;2023-08-31T07:39:52;14.90;1.00
21331;DHT22;10824;51.632;4.950;2023-08-31T07:42:19;15.00;1.00
21331;DHT22;10824;51.632;4.950;2023-08-31T07:44:46;15.10;1.00
21331;DHT22;10824;51.632;4.950;2023-08-31T07:47:14;15.20;1.00
21331;DHT22;10824;51.632;4.950;2023-08-31T07:49:41;15.30;99.90
21331;DHT22;10824;51.632;4.950;2023-08-31T07:52:09;15.40;99.90
21331;DHT22;10824;51.632;4.950;2023-08-31T07:54:37;15.40;99.90
21331;DHT22;10824;51.632;4.950;2023-08-31T07:57:04;15.50;99.90
21331;DHT22;10824;51.632;4.950;2023-08-31T07:59:31;15.50;99.90
21331;DHT22;10824;51.632;4.950;2023-08-31T08:01:58;15.70;18.90
21331;DHT22;10824;51.632;4.950;2023-08-31T08:04:26;15.70;1.00
21331;DHT22;10824;51.632;4.950;2023-08-31T08:06:54;15.80;1.00
21331;DHT22;10824;51.632;4.950;2023-08-31T08:09:21;15.80;1.00
21331;DHT22;10824;51.632;4.950;2023-08-31T08:11:48;15.90;99.90
21331;DHT22;10824;51.632;4.950;2023-08-31T08:14:15;15.90;99.90
21331;DHT22;10824;51.632;4.950;2023-08-31T08:16:43;16.00;99.90
21331;DHT22;10824;51.632;4.950;2023-08-31T08:19:10;16.10;39.20
21331;DHT22;10824;51.632;4.950;2023-08-31T08:21:37;16.20;99.90
21331;DHT22;10824;51.632;4.950;2023-08-31T08:24:04;16.20;32.40
21331;DHT22;10824;51.632;4.950;2023-08-31T08:26:31;16.30;1.00
21331;DHT22;10824;51.632;4.950;2023-08-31T08:28:58;16.40;1.00
21331;DHT22;10824;51.632;4.950;2023-08-31T08:31:26;16.60;99.90
21331;DHT22;10824;51.632;4.950;2023-08-31T08:33:53;16.70;99.90
21331;DHT22;10824;51.632;4.950;2023-08-31T08:36:20;16.70;1.00
21331;DHT22;10824;51.632;4.950;2023-08-31T08:38:47;16.80;99.90
21331;DHT22;10824;51.632;4.950;2023-08-31T08:41:15;16.80;99.90
21331;DHT22;10824;51.632;4.950;2023-08-31T08:43:47;16.90;99.90
21331;DHT22;10824;51.632;4.950;2023-08-31T08:46:14;16.90;99.90
21331;DHT22;10824;51.632;4.950;2023-08-31T08:48:42;17.00;99.90
21331;DHT22;10824;51.632;4.950;2023-08-31T08:51:11;17.10;1.00
21331;DHT22;10824;51.632;4.950;2023-08-31T08:53:43;17.20;99.90
21331;DHT22;10824;51.632;4.950;2023-08-31T08:56:10;17.20;99.90
21331;DHT22;10824;51.632;4.950;2023-08-31T08:58:37;17.30;99.90
21331;DHT22;10824;51.632;4.950;2023-08-31T09:01:06;17.30;1.00
21331;DHT22;10824;51.632;4.950;2023-08-31T09:03:35;17.40;38.50
21331;DHT22;10824;51.632;4.950;2023-08-31T09:06:02;17.50;3.10
21331;DHT22;10824;51.632;4.950;2023-08-31T09:08:31;17.60;1.00
21331;DHT22;10824;51.632;4.950;2023-08-31T09:10:58;17.80;99.90
21331;DHT22;10824;51.632;4.950;2023-08-31T09:13:29;17.80;99.90
21331;DHT22;10824;51.632;4.950;2023-08-31T09:15:57;17.90;99.90
21331;DHT22;10824;51.632;4.950;2023-08-31T09:18:29;17.70;99.90
21331;DHT22;10824;51.632;4.950;2023-08-31T09:20:57;17.80;99.90
21331;DHT22;10824;51.632;4.950;2023-08-31T09:23:25;17.90;1.00
21331;DHT22;10824;51.632;4.950;2023-08-31T09:25:54;18.00;1.00
21331;DHT22;10824;51.632;4.950;2023-08-31T09:28:28;18.10;99.90
21331;DHT22;10824;51.632;4.950;2023-08-31T09:31:05;18.30;1.00
21331;DHT22;10824;51.632;4.950;2023-08-31T09:33:37;18.40;1.00
21331;DHT22;10824;51.632;4.950;2023-08-31T09:36:07;18.40;1.00
21331;DHT22;10824;51.632;4.950;2023-08-31T09:38:43;18.40;1.00
21331;DHT22;10824;51.632;4.950;2023-08-31T09:41:11;18.50;99.90
21331;DHT22;10824;51.632;4.950;2023-08-31T09:43:46;18.40;99.90
21331;DHT22;10824;51.632;4.950;2023-08-31T09:46:13;18.20;59.40
21331;DHT22;10824;51.632;4.950;2023-08-31T09:48:42;18.20;1.00
21331;DHT22;10824;51.632;4.950;2023-08-31T09:51:10;18.30;99.90
21331;DHT22;10824;51.632;4.950;2023-08-31T09:53:38;18.30;99.90
21331;DHT22;10824;51.632;4.950;2023-08-31T09:56:06;18.60;99.90
21331;DHT22;10824;51.632;4.950;2023-08-31T09:58:34;18.70;1.00
21331;DHT22;10824;51.632;4.950;2023-08-31T10:01:01;18.80;99.90
21331;DHT22;10824;51.632;4.950;2023-08-31T10:03:42;19.00;1.00
21331;DHT22;10824;51.632;4.950;2023-08-31T10:06:10;19.10;1.00
21331;DHT22;10824;51.632;4.950;2023-08-31T10:08:41;19.10;1.00
21331;DHT22;10824;51.632;4.950;2023-08-31T10:11:11;19.50;1.00
21331;DHT22;10824;51.632;4.950;2023-08-31T10:13:41;19.30;1.00
21331;DHT22;10824;51.632;4.950;2023-08-31T10:16:11;19.10;99.90
21331;DHT22;10824;51.632;4.950;2023-08-31T10:18:41;19.00;99.90
21331;DHT22;10824;51.632;4.950;2023-08-31T10:21:09;18.80;99.90
21331;DHT22;10824;51.632;4.950;2023-08-31T10:23:36;18.90;99.90
21331;DHT22;10824;51.632;4.950;2023-08-31T10:26:10;18.90;99.90
21331;DHT22;10824;51.632;4.950;2023-08-31T10:28:40;19.00;99.90
21331;DHT22;10824;51.632;4.950;2023-08-31T10:31:16;19.40;99.90
21331;DHT22;10824;51.632;4.950;2023-08-31T10:33:55;19.50;99.90
21331;DHT22;10824;51.632;4.950;2023-08-31T10:36:36;19.20;1.00
21331;DHT22;10824;51.632;4.950;2023-08-31T10:39:14;19.20;1.00
21331;DHT22;10824;51.632;4.950;2023-08-31T10:41:56;19.30;1.00
21331;DHT22;10824;51.632;4.950;2023-08-31T10:44:25;19.20;1.00
21331;DHT22;10824;51.632;4.950;2023-08-31T10:46:54;18.90;1.00
21331;DHT22;10824;51.632;4.950;2023-08-31T10:49:22;19.00;1.00
21331;DHT22;10824;51.632;4.950;2023-08-31T10:51:57;18.90;99.90
21331;DHT22;10824;51.632;4.950;2023-08-31T10:59:51;18.60;24.20
21331;DHT22;10824;51.632;4.950;2023-08-31T11:02:43;18.80;29.30
21331;DHT22;10824;51.632;4.950;2023-08-31T11:07:44;18.90;16.50
21331;DHT22;10824;51.632;4.950;2023-08-31T11:10:16;18.90;99.90
21331;DHT22;10824;51.632;4.950;2023-08-31T11:12:55;18.90;99.90
21331;DHT22;10824;51.632;4.950;2023-08-31T11:15:26;18.80;99.90
21331;DHT22;10824;51.632;4.950;2023-08-31T11:17:54;18.50;99.90
21331;DHT22;10824;51.632;4.950;2023-08-31T11:20:24;18.30;1.00
21331;DHT22;10824;51.632;4.950;2023-08-31T11:22:57;18.10;1.00
21331;DHT22;10824;51.632;4.950;2023-08-31T11:25:24;17.90;99.90
21331;DHT22;10824;51.632;4.950;2023-08-31T11:27:57;17.90;99.90
21331;DHT22;10824;51.632;4.950;2023-08-31T11:30:29;17.80;99.90
21331;DHT22;10824;51.632;4.950;2023-08-31T11:33:08;17.80;99.90
21331;DHT22;10824;51.632;4.950;2023-08-31T11:35:41;17.90;5.80
21331;DHT22;10824;51.632;4.950;2023-08-31T11:38:10;17.90;99.90
21331;DHT22;10824;51.632;4.950;2023-08-31T11:40:39;18.10;99.90
21331;DHT22;10824;51.632;4.950;2023-08-31T11:43:06;18.20;28.40
21331;DHT22;10824;51.632;4.950;2023-08-31T11:45:36;18.30;3.00
21331;DHT22;10824;51.632;4.950;2023-08-31T11:48:06;18.50;1.00
21331;DHT22;10824;51.632;4.950;2023-08-31T11:50:34;18.70;99.90
21331;DHT22;10824;51.632;4.950;2023-08-31T11:53:02;19.20;99.90
21331;DHT22;10824;51.632;4.950;2023-08-31T11:55:29;19.00;99.90
21331;DHT22;10824;51.632;4.950;2023-08-31T11:58:02;19.00;99.90
21331;DHT22;10824;51.632;4.950;2023-08-31T12:00:30;19.10;99.90
21331;DHT22;10824;51.632;4.950;2023-08-31T12:03:00;19.30;99.90
21331;DHT22;10824;51.632;4.950;2023-08-31T12:05:29;19.50;1.00
21331;DHT22;10824;51.632;4.950;2023-08-31T12:07:59;19.50;99.90
21331;DHT22;10824;51.632;4.950;2023-08-31T12:10:26;19.80;99.90
21331;DHT22;10824;51.632;4.950;2023-08-31T12:12:54;19.90;99.90
21331;DHT22;10824;51.632;4.950;2023-08-31T12:15:34;19.80;57.50
21331;DHT22;10824;51.632;4.950;2023-08-31T12:18:09;19.40;29.50
21331;DHT22;10824;51.632;4.950;2023-08-31T12:20:44;19.10;40.10
21331;DHT22;10824;51.632;4.950;2023-08-31T12:23:11;19.10;51.30
21331;DHT22;10824;51.632;4.950;2023-08-31T12:25:39;19.20;3.00
21331;DHT22;10824;51.632;4.950;2023-08-31T12:28:07;19.10;14.50
21331;DHT22;10824;51.632;4.950;2023-08-31T12:30:34;19.10;99.90
21331;DHT22;10824;51.632;4.950;2023-08-31T12:33:01;19.00;99.90
21331;DHT22;10824;51.632;4.950;2023-08-31T12:35:28;18.90;99.90
21331;DHT22;10824;51.632;4.950;2023-08-31T12:37:57;18.90;99.90
21331;DHT22;10824;51.632;4.950;2023-08-31T12:40:24;18.90;99.90
21331;DHT22;10824;51.632;4.950;2023-08-31T12:42:52;18.90;99.90
21331;DHT22;10824;51.632;4.950;2023-08-31T12:45:19;18.90;99.90
21331;DHT22;10824;51.632;4.950;2023-08-31T12:47:46;19.10;99.90
21331;DHT22;10824;51.632;4.950;2023-08-31T12:50:15;19.10;99.90
21331;DHT22;10824;51.632;4.950;2023-08-31T12:52:43;19.10;99.90
21331;DHT22;10824;51.632;4.950;2023-08-31T12:55:13;19.30;99.90
21331;DHT22;10824;51.632;4.950;2023-08-31T12:57:42;19.10;99.90
21331;DHT22;10824;51.632;4.950;2023-08-31T13:00:10;19.10;99.90
21331;DHT22;10824;51.632;4.950;2023-08-31T13:02:41;19.40;99.90
21331;DHT22;10824;51.632;4.950;2023-08-31T13:05:12;20.00;99.90
21331;DHT22;10824;51.632;4.950;2023-08-31T13:07:39;20.30;90.40
21331;DHT22;10824;51.632;4.950;2023-08-31T13:10:09;20.60;28.50
21331;DHT22;10824;51.632;4.950;2023-08-31T13:12:36;20.50;1.00
21331;DHT22;10824;51.632;4.950;2023-08-31T13:15:04;20.90;2.20
21331;DHT22;10824;51.632;4.950;2023-08-31T13:17:32;21.20;1.00
21331;DHT22;10824;51.632;4.950;2023-08-31T13:20:00;21.00;1.00
21331;DHT22;10824;51.632;4.950;2023-08-31T13:22:28;21.30;1.00
21331;DHT22;10824;51.632;4.950;2023-08-31T13:24:55;20.70;1.00
21331;DHT22;10824;51.632;4.950;2023-08-31T13:27:23;20.10;1.00
21331;DHT22;10824;51.632;4.950;2023-08-31T13:29:50;20.10;1.00
21331;DHT22;10824;51.632;4.950;2023-08-31T13:32:18;19.90;1.00
21331;DHT22;10824;51.632;4.950;2023-08-31T13:34:46;19.80;1.00
21331;DHT22;10824;51.632;4.950;2023-08-31T13:37:14;20.10;1.00
21331;DHT22;10824;51.632;4.950;2023-08-31T13:39:41;19.90;1.00
21331;DHT22;10824;51.632;4.950;2023-08-31T13:42:08;19.80;1.00
21331;DHT22;10824;51.632;4.950;2023-08-31T13:44:35;19.70;1.00
21331;DHT22;10824;51.632;4.950;2023-08-31T13:47:03;19.60;1.00
21331;DHT22;10824;51.632;4.950;2023-08-31T13:49:32;19.60;1.00
21331;DHT22;10824;51.632;4.950;2023-08-31T13:52:00;19.70;1.00
21331;DHT22;10824;51.632;4.950;2023-08-31T13:54:27;19.70;1.00
21331;DHT22;10824;51.632;4.950;2023-08-31T13:56:54;19.70;1.00
21331;DHT22;10824;51.632;4.950;2023-08-31T13:59:21;19.70;1.00
21331;DHT22;10824;51.632;4.950;2023-08-31T14:01:48;19.60;1.00
21331;DHT22;10824;51.632;4.950;2023-08-31T14:04:16;19.50;1.00
21331;DHT22;10824;51.632;4.950;2023-08-31T14:06:43;19.60;1.00
21331;DHT22;10824;51.632;4.950;2023-08-31T14:09:10;19.40;1.00
21331;DHT22;10824;51.632;4.950;2023-08-31T14:11:37;19.40;1.00
21331;DHT22;10824;51.632;4.950;2023-08-31T14:14:05;19.40;1.00
21331;DHT22;10824;51.632;4.950;2023-08-31T14:16:36;19.30;1.00
21331;DHT22;10824;51.632;4.950;2023-08-31T14:19:04;19.30;1.00
21331;DHT22;10824;51.632;4.950;2023-08-31T14:21:33;19.20;1.00
21331;DHT22;10824;51.632;4.950;2023-08-31T14:24:00;19.20;1.00
21331;DHT22;10824;51.632;4.950;2023-08-31T14:26:27;19.20;1.00
21331;DHT22;10824;51.632;4.950;2023-08-31T14:28:54;19.30;1.00
21331;DHT22;10824;51.632;4.950;2023-08-31T14:31:23;19.20;1.00
21331;DHT22;10824;51.632;4.950;2023-08-31T14:33:50;19.30;1.00
21331;DHT22;10824;51.632;4.950;2023-08-31T14:36:19;19.30;1.00
21331;DHT22;10824;51.632;4.950;2023-08-31T14:38:46;19.50;1.00
21331;DHT22;10824;51.632;4.950;2023-08-31T14:41:13;19.50;1.00
21331;DHT22;10824;51.632;4.950;2023-08-31T14:43:40;19.50;1.00
21331;DHT22;10824;51.632;4.950;2023-08-31T14:46:09;19.50;1.00
21331;DHT22;10824;51.632;4.950;2023-08-31T14:48:36;19.50;1.00
21331;DHT22;10824;51.632;4.950;2023-08-31T14:51:04;19.80;1.00
21331;DHT22;10824;51.632;4.950;2023-08-31T14:53:31;20.30;1.00
21331;DHT22;10824;51.632;4.950;2023-08-31T14:55:58;20.60;1.00
21331;DHT22;10824;51.632;4.950;2023-08-31T14:58:25;20.90;1.00
21331;DHT22;10824;51.632;4.950;2023-08-31T15:00:55;20.90;1.00
21331;DHT22;10824;51.632;4.950;2023-08-31T15:03:23;20.90;1.00
21331;DHT22;10824;51.632;4.950;2023-08-31T15:05:51;20.70;1.00
21331;DHT22;10824;51.632;4.950;2023-08-31T15:08:34;20.40;1.00
21331;DHT22;10824;51.632;4.950;2023-08-31T15:11:02;20.20;1.00
21331;DHT22;10824;51.632;4.950;2023-08-31T15:13:29;20.20;1.00
21331;DHT22;10824;51.632;4.950;2023-08-31T15:15:59;20.10;1.00
21331;DHT22;10824;51.632;4.950;2023-08-31T15:18:29;20.10;1.00
21331;DHT22;10824;51.632;4.950;2023-08-31T15:20:57;20.00;1.00
21331;DHT22;10824;51.632;4.950;2023-08-31T15:23:24;20.00;1.00
21331;DHT22;10824;51.632;4.950;2023-08-31T15:25:51;20.00;1.00
21331;DHT22;10824;51.632;4.950;2023-08-31T15:28:18;19.90;1.00
21331;DHT22;10824;51.632;4.950;2023-08-31T15:30:46;19.90;1.00
21331;DHT22;10824;51.632;4.950;2023-08-31T15:33:14;19.90;1.00
21331;DHT22;10824;51.632;4.950;2023-08-31T15:35:41;19.80;1.00
21331;DHT22;10824;51.632;4.950;2023-08-31T15:38:08;19.80;1.00
21331;DHT22;10824;51.632;4.950;2023-08-31T15:40:36;19.80;1.00
21331;DHT22;10824;51.632;4.950;2023-08-31T15:43:03;19.60;1.00
21331;DHT22;10824;51.632;4.950;2023-08-31T15:45:30;19.50;1.00
21331;DHT22;10824;51.632;4.950;2023-08-31T15:47:58;19.60;1.00
21331;DHT22;10824;51.632;4.950;2023-08-31T15:50:25;19.60;1.00
21331;DHT22;10824;51.632;4.950;2023-08-31T15:52:52;19.60;1.00
21331;DHT22;10824;51.632;4.950;2023-08-31T15:55:20;19.70;1.00
21331;DHT22;10824;51.632;4.950;2023-08-31T15:57:47;19.60;1.00
21331;DHT22;10824;51.632;4.950;2023-08-31T16:00:14;19.60;1.00